TimeCST,TemperatureF,Dew PointF,Humidity,Sea Level PressureIn,VisibilityMPH,Wind Direction,Wind SpeedMPH,Gust SpeedMPH,PrecipitationIn,Events,Conditions,WindDirDegrees,DateUTC
12:53 AM,52.0,48.0,86,30.18,10.0,Calm,Calm,-,N/A,,Clear,0,2012-11-21 06:53:00
1:53 AM,52.0,46.9,83,30.18,10.0,Calm,Calm,-,N/A,,Clear,0,2012-11-21 07:53:00
2:53 AM,51.1,48.9,92,30.18,7.0,Calm,Calm,-,N/A,,Clear,0,2012-11-21 08:53:00
3:53 AM,51.1,48.9,92,30.19,9.0,Calm,Calm,-,N/A,,Clear,0,2012-11-21 09:53:00
4:53 AM,52.0,48.0,86,30.19,7.0,Calm,Calm,-,0.01,,Clear,0,2012-11-21 10:53:00
5:53 AM,53.1,48.0,83,30.20,8.0,Calm,Calm,-,N/A,,Clear,0,2012-11-21 11:53:00
6:53 AM,54.0,48.0,80,30.22,8.0,NW,4.6,-,N/A,,Clear,310,2012-11-21 12:53:00
7:53 AM,57.9,48.9,72,30.23,9.0,WNW,5.8,-,N/A,,Clear,300,2012-11-21 13:53:00
8:53 AM,64.9,54.0,68,30.25,9.0,NW,8.1,-,N/A,,Clear,320,2012-11-21 14:53:00
9:53 AM,69.1,54.0,58,30.25,10.0,NNW,8.1,-,N/A,,Clear,340,2012-11-21 15:53:00
10:53 AM,72.0,54.0,53,30.24,10.0,NW,6.9,-,N/A,,Clear,310,2012-11-21 16:53:00
11:53 AM,75.0,55.0,50,30.21,10.0,NW,9.2,-,N/A,,Clear,310,2012-11-21 17:53:00
12:53 PM,78.1,52.0,40,30.18,10.0,NNW,12.7,-,N/A,,Scattered Clouds,340,2012-11-21 18:53:00
1:53 PM,78.1,46.0,32,30.16,10.0,NNW,9.2,-,N/A,,Clear,340,2012-11-21 19:53:00
2:53 PM,78.1,45.0,31,30.15,10.0,North,5.8,-,N/A,,Clear,10,2012-11-21 20:53:00
3:53 PM,75.9,43.0,31,30.15,10.0,North,9.2,-,N/A,,Clear,10,2012-11-21 21:53:00
4:53 PM,70.0,45.0,41,30.16,10.0,NE,4.6,-,N/A,,Clear,40,2012-11-21 22:53:00
5:53 PM,62.1,51.1,67,30.17,10.0,Calm,Calm,-,N/A,,Clear,0,2012-11-21 23:53:00
6:53 PM,59.0,51.1,75,30.18,10.0,Calm,Calm,-,N/A,,Clear,0,2012-11-22 00:53:00
7:53 PM,57.0,51.1,81,30.19,10.0,Calm,Calm,-,N/A,,Clear,0,2012-11-22 01:53:00
8:53 PM,54.0,50.0,86,30.20,10.0,Calm,Calm,-,N/A,,Clear,0,2012-11-22 02:53:00
9:53 PM,53.1,50.0,89,30.21,10.0,Calm,Calm,-,N/A,,Clear,0,2012-11-22 03:53:00
10:53 PM,51.1,48.9,92,30.20,10.0,Calm,Calm,-,N/A,,Clear,0,2012-11-22 04:53:00
11:53 PM,50.0,46.9,89,30.20,10.0,Calm,Calm,-,N/A,,Clear,0,2012-11-22 05:53:00